메인 페이지
METAR-TAF:

METAR-TAF

공항 :

Little Rock National Airport (Adams Field)

리틀록, 아칸소, 미국

위도: 34-43-36N, 경도: 092-14-10W, 고도: 79m

현재 날씨관측

예보는 11분 전, 19:22시(UTC)에 발표되었습니다.
5kt
온도 13°C
습도 88%
기압 1021 hPa
시정: 16.1km
고도 900ft 상공 흐림
약한비

METAR: KLIT 181922Z 18005KT 10SM -RA OVC009 13/11 A3014 RMK AO2 RAB21 P0000 T01280106

시각: 13:33 (19:33 UTC)

예보

예보는 2 시간 12분 전, 17:21시(UTC)에 발표되었습니다.
예보 대상 시간: 18일 18시부터 19일 18시까지 (UTC)
남서5kt
시정: 8.0km
고도 1500ft 상공 구름 많음
고도 4000ft 상공 흐림
박무, 시계 내 소나기
18일 2300시부터 (UTC)
동북동3kt
시정: 8.0km
고도 1500ft 상공 흐림
박무, 시계 내 소나기
19일 0300시부터 (UTC)
여러 방향의 바람 4kt
시정: 6.4km
고도 700ft 상공 흐림
박무
19일 1300시부터 (UTC)
서북서4kt
시정: 10km
고도 700ft 상공 구름 보통
고도 1500ft 상공 구름 많음

TAF: KLIT 181721Z 1818/1918 23005KT 5SM BR VCSH BKN015 OVC040 FM182300 07003KT 5SM BR VCSH OVC015 FM190300 VRB04KT 4SM BR OVC007 FM191300 30004KT P6SM SCT007 BKN015

4,000개 이상의 공항 관측 자료 및 예보 (METAR 및 TAF 보고).

지도상에서 검색 가능한 기상관측소가 노란 점과 빨간 점으로 표시되어 있습니다.

기상관측소 명을 보려면 표시 위로 마우스를 이동하세요.

날씨 관측과 예보를 보려면 클릭하세요.

지도 변경 : 확대하려면 엑스 표시가 있는 녹색 버튼, 축소하려면 빼기 표시가 있는 녹색 버튼, 다음 페이지의 지도를 보려면 녹색 화살표를 클릭하세요.


METAR-TAF: